createdAt,value
2023-03-29T00:01:53.976Z,6.13
2023-03-29T00:04:27.521Z,5.80
2023-03-29T00:07:04.029Z,6.72
2023-03-29T00:09:37.152Z,5.10
2023-03-29T00:12:11.044Z,5.53
2023-03-29T00:14:45.151Z,6.13
2023-03-29T00:17:17.936Z,5.65
2023-03-29T00:19:50.587Z,4.40
2023-03-29T00:22:23.237Z,4.65
2023-03-29T00:24:56.318Z,5.15
2023-03-29T00:27:29.175Z,3.60
2023-03-29T00:30:04.036Z,3.95
2023-03-29T00:32:36.978Z,4.53
2023-03-29T00:35:09.946Z,5.35
2023-03-29T00:37:42.621Z,5.32
2023-03-29T00:40:15.822Z,5.38
2023-03-29T00:42:48.593Z,4.22
2023-03-29T00:45:25.148Z,3.55
2023-03-29T00:47:59.951Z,7.63
2023-03-29T00:53:06.906Z,3.63
2023-03-29T00:55:42.192Z,6.85
2023-03-29T00:58:16.673Z,5.40
2023-03-29T01:00:53.208Z,4.03
2023-03-29T01:03:34.363Z,4.03
2023-03-29T01:06:11.518Z,4.88
2023-03-29T01:08:48.247Z,7.05
2023-03-29T01:11:31.179Z,8.35
2023-03-29T01:14:26.413Z,5.65
2023-03-29T01:17:19.553Z,3.75
2023-03-29T01:20:10.837Z,4.93
2023-03-29T01:23:01.622Z,4.72
2023-03-29T01:25:54.869Z,5.43
2023-03-29T01:28:36.367Z,4.13
2023-03-29T01:31:28.010Z,3.42
2023-03-29T01:34:09.975Z,6.15
2023-03-29T01:36:49.357Z,4.95
2023-03-29T01:39:21.995Z,8.82
2023-03-29T01:42:00.354Z,3.45
2023-03-29T01:44:49.856Z,4.55
2023-03-29T01:47:32.277Z,5.25
2023-03-29T01:50:12.612Z,4.37
2023-03-29T01:52:53.744Z,6.07
2023-03-29T01:55:28.410Z,3.30
2023-03-29T01:58:01.849Z,4.10
2023-03-29T02:00:37.199Z,4.00
2023-03-29T02:03:10.868Z,4.43
2023-03-29T02:05:47.234Z,3.85
2023-03-29T02:08:26.463Z,4.18
2023-03-29T02:11:04.535Z,4.15
2023-03-29T02:13:58.731Z,3.75
2023-03-29T02:16:37.461Z,3.53
2023-03-29T02:19:10.747Z,2.92
2023-03-29T02:21:48.191Z,5.88
2023-03-29T02:24:22.738Z,4.57
2023-03-29T02:26:55.726Z,5.07
2023-03-29T02:29:28.826Z,4.30
2023-03-29T02:32:09.648Z,6.28
2023-03-29T02:34:47.598Z,5.88
2023-03-29T02:37:21.677Z,5.20
2023-03-29T02:39:54.481Z,5.20
2023-03-29T02:42:28.031Z,6.30
2023-03-29T02:45:01.768Z,5.72
2023-03-29T02:47:39.176Z,7.00
2023-03-29T02:50:12.380Z,7.32
2023-03-29T02:52:48.485Z,5.97
2023-03-29T02:55:22.509Z,4.82
2023-03-29T02:57:55.083Z,7.88
2023-03-29T03:00:28.615Z,4.78
2023-03-29T03:03:03.176Z,4.75
2023-03-29T03:05:36.048Z,7.22
2023-03-29T03:08:09.074Z,4.35
2023-03-29T03:10:42.136Z,5.13
2023-03-29T03:13:14.779Z,6.45
2023-03-29T03:15:49.137Z,6.25
2023-03-29T03:18:23.291Z,5.80
2023-03-29T03:20:56.790Z,7.03
2023-03-29T03:23:30.317Z,5.22
2023-03-29T03:26:03.049Z,5.97
2023-03-29T03:28:37.403Z,5.30
2023-03-29T03:31:13.848Z,5.35
2023-03-29T03:34:14.249Z,4.72
2023-03-29T03:36:55.428Z,5.88
2023-03-29T03:39:28.709Z,4.18
2023-03-29T03:42:01.437Z,5.15
2023-03-29T03:44:34.497Z,4.78
2023-03-29T03:47:27.154Z,6.22
2023-03-29T03:50:03.899Z,4.53
2023-03-29T03:52:36.686Z,4.55
2023-03-29T03:55:09.642Z,5.18
2023-03-29T03:58:08.525Z,6.13
2023-03-29T04:00:41.737Z,6.53
2023-03-29T04:03:35.843Z,7.25
2023-03-29T04:06:10.040Z,6.05
2023-03-29T04:09:14.796Z,4.95
2023-03-29T04:11:53.001Z,5.88
2023-03-29T04:14:25.897Z,5.93
2023-03-29T04:17:10.250Z,7.77
2023-03-29T04:19:53.349Z,3.95
2023-03-29T04:22:27.680Z,3.78
2023-03-29T04:25:00.685Z,3.95
2023-03-29T04:28:05.585Z,7.38
2023-03-29T04:30:54.246Z,6.50
2023-03-29T04:33:47.465Z,6.20
2023-03-29T04:36:21.315Z,5.68
2023-03-29T04:38:55.390Z,5.80
2023-03-29T04:41:29.376Z,6.53
2023-03-29T04:44:09.495Z,8.80
2023-03-29T04:46:42.923Z,5.57
2023-03-29T04:49:16.455Z,6.15
2023-03-29T04:51:53.196Z,8.02
2023-03-29T04:54:30.342Z,8.27
2023-03-29T04:57:06.069Z,7.78
2023-03-29T04:59:57.380Z,8.00
2023-03-29T05:03:04.427Z,7.77
2023-03-29T05:05:40.312Z,8.07
2023-03-29T05:08:13.007Z,7.68
2023-03-29T05:11:13.591Z,12.45
2023-03-29T05:13:47.866Z,5.97
2023-03-29T05:16:20.691Z,8.40
2023-03-29T05:18:55.254Z,10.25
2023-03-29T05:21:28.423Z,7.68
2023-03-29T05:24:04.553Z,8.80
2023-03-29T05:27:02.305Z,5.70
2023-03-29T05:29:37.419Z,6.63
2023-03-29T05:35:06.921Z,8.07
2023-03-29T05:40:15.322Z,6.28
2023-03-29T05:43:09.370Z,5.85
2023-03-29T05:45:42.166Z,9.27
2023-03-29T05:48:14.916Z,17.58
2023-03-29T05:50:49.543Z,8.38
2023-03-29T05:53:23.869Z,8.98
2023-03-29T05:55:57.350Z,8.93
2023-03-29T05:58:34.758Z,7.28
2023-03-29T06:01:11.506Z,8.17
2023-03-29T06:04:10.708Z,10.98
2023-03-29T06:06:50.159Z,9.18
2023-03-29T06:09:23.871Z,7.45
2023-03-29T06:12:05.160Z,8.32
2023-03-29T06:15:04.661Z,9.27
2023-03-29T06:17:47.146Z,8.48
2023-03-29T06:20:20.600Z,7.30
2023-03-29T06:22:59.062Z,9.23
2023-03-29T06:25:33.785Z,6.40
2023-03-29T06:28:09.815Z,7.22
2023-03-29T06:30:45.936Z,8.02
2023-03-29T06:33:20.410Z,7.25
2023-03-29T06:36:07.931Z,7.32
2023-03-29T06:38:41.568Z,6.47
2023-03-29T06:41:26.405Z,8.38
2023-03-29T06:44:21.637Z,8.77
2023-03-29T06:47:08.145Z,7.35
2023-03-29T06:49:41.508Z,9.15
2023-03-29T06:52:35.609Z,16.48
2023-03-29T06:55:09.013Z,8.02
2023-03-29T06:57:44.514Z,8.37
2023-03-29T07:00:18.194Z,7.95
2023-03-29T07:03:23.344Z,8.85
2023-03-29T07:06:02.615Z,10.23
2023-03-29T07:08:40.731Z,8.20
2023-03-29T07:11:20.299Z,12.13
2023-03-29T07:13:58.048Z,9.10
2023-03-29T07:16:32.655Z,6.80
2023-03-29T07:19:15.933Z,6.43
2023-03-29T07:22:00.888Z,8.55
2023-03-29T07:24:44.845Z,7.55
2023-03-29T07:27:18.028Z,7.63
2023-03-29T07:29:54.253Z,8.13
2023-03-29T07:32:27.970Z,7.97
2023-03-29T07:35:19.217Z,10.18
2023-03-29T07:37:52.528Z,8.47
2023-03-29T07:40:28.136Z,7.50
2023-03-29T07:43:08.728Z,8.93
2023-03-29T07:45:48.670Z,10.02
2023-03-29T07:48:22.127Z,9.73
2023-03-29T07:51:03.739Z,11.23
2023-03-29T07:53:45.257Z,7.05
2023-03-29T07:56:56.494Z,8.70
2023-03-29T07:59:36.682Z,6.97
2023-03-29T08:02:19.605Z,9.27
2023-03-29T08:04:56.759Z,7.60
2023-03-29T08:07:52.873Z,8.02
2023-03-29T08:10:44.666Z,7.60
2023-03-29T08:13:28.218Z,10.25
2023-03-29T08:16:19.565Z,8.10
2023-03-29T08:18:59.751Z,8.68
2023-03-29T08:21:44.991Z,6.32
2023-03-29T08:24:21.142Z,8.57
2023-03-29T08:26:58.100Z,6.15
2023-03-29T08:29:31.445Z,8.73
2023-03-29T08:32:05.569Z,9.20
2023-03-29T08:34:38.796Z,9.68
2023-03-29T08:37:24.479Z,9.35
2023-03-29T08:40:00.266Z,7.43
2023-03-29T08:43:14.082Z,5.95
2023-03-29T08:46:18.901Z,7.53
2023-03-29T08:48:53.849Z,11.48
2023-03-29T08:51:31.306Z,7.40
2023-03-29T08:54:05.965Z,7.47
2023-03-29T08:56:55.117Z,6.20
2023-03-29T08:59:34.554Z,7.03
2023-03-29T09:02:15.950Z,8.25
2023-03-29T09:04:49.384Z,8.15
2023-03-29T09:07:42.422Z,7.18
2023-03-29T09:10:16.995Z,9.23
2023-03-29T09:12:59.145Z,4.28
2023-03-29T09:15:35.578Z,8.65
2023-03-29T09:18:23.210Z,7.28
2023-03-29T09:21:01.364Z,3.95
2023-03-29T09:23:48.017Z,5.25
2023-03-29T09:26:34.954Z,6.73
2023-03-29T09:29:44.948Z,6.28
2023-03-29T09:32:21.431Z,9.80
2023-03-29T09:35:03.213Z,7.82
2023-03-29T09:37:38.008Z,8.05
2023-03-29T09:40:12.932Z,9.38
2023-03-29T09:42:58.345Z,7.22
2023-03-29T09:45:36.347Z,9.05
2023-03-29T09:48:12.421Z,9.25
2023-03-29T09:50:48.234Z,8.25
2023-03-29T09:53:21.862Z,6.38
2023-03-29T09:56:15.733Z,8.60
2023-03-29T09:59:04.180Z,8.77
2023-03-29T10:01:39.398Z,6.97
2023-03-29T10:04:14.207Z,10.82
2023-03-29T10:06:50.884Z,11.30
2023-03-29T10:09:25.186Z,8.35
2023-03-29T10:12:07.955Z,9.63
2023-03-29T10:14:43.411Z,9.27
2023-03-29T10:17:19.840Z,13.52
2023-03-29T10:19:53.317Z,8.90
2023-03-29T10:22:28.858Z,10.63
2023-03-29T10:25:02.049Z,8.75
2023-03-29T10:27:35.269Z,11.55
2023-03-29T10:30:12.770Z,9.25
2023-03-29T10:32:48.403Z,8.48
2023-03-29T10:35:22.339Z,10.95
2023-03-29T10:37:57.489Z,10.47
2023-03-29T10:40:31.705Z,8.32
2023-03-29T10:43:12.917Z,9.38
2023-03-29T10:45:49.129Z,8.55
2023-03-29T10:48:28.679Z,9.65
2023-03-29T10:51:02.557Z,8.65
2023-03-29T10:53:37.508Z,11.88
2023-03-29T10:58:49.586Z,12.07
2023-03-29T11:01:25.481Z,8.05
2023-03-29T11:04:05.571Z,7.57
2023-03-29T11:06:41.081Z,10.95
2023-03-29T11:09:17.760Z,10.23
2023-03-29T11:12:15.579Z,10.05
2023-03-29T11:14:55.605Z,7.13
2023-03-29T11:17:36.474Z,9.55
2023-03-29T11:20:26.287Z,8.38
2023-03-29T11:23:03.226Z,6.03
2023-03-29T11:25:41.818Z,6.75
2023-03-29T11:28:17.476Z,9.18
2023-03-29T11:30:58.470Z,8.52
2023-03-29T11:33:38.610Z,7.13
2023-03-29T11:36:16.528Z,8.70
2023-03-29T11:38:56.348Z,10.75
2023-03-29T11:41:31.802Z,8.55
2023-03-29T11:44:06.677Z,6.57
2023-03-29T11:49:15.755Z,7.07
2023-03-29T11:51:53.538Z,11.05
2023-03-29T11:54:28.530Z,6.13
2023-03-29T11:57:03.067Z,7.55
2023-03-29T11:59:38.635Z,6.88
2023-03-29T12:02:14.377Z,8.75
2023-03-29T12:04:49.496Z,8.48
2023-03-29T12:07:26.674Z,8.85
2023-03-29T12:10:00.681Z,8.20
2023-03-29T12:12:41.669Z,7.97
2023-03-29T12:15:20.122Z,6.43
2023-03-29T12:18:02.931Z,7.97
2023-03-29T12:20:36.949Z,5.97
2023-03-29T12:23:13.946Z,7.67
2023-03-29T12:25:52.111Z,5.63
2023-03-29T12:28:34.394Z,6.47
2023-03-29T12:31:12.932Z,8.27
2023-03-29T12:34:04.136Z,8.68
2023-03-29T12:37:20.919Z,6.85
2023-03-29T12:40:15.170Z,7.50
2023-03-29T12:43:08.533Z,8.57
2023-03-29T12:46:02.856Z,7.72
2023-03-29T12:48:38.089Z,9.32
2023-03-29T12:51:13.650Z,6.10
2023-03-29T12:53:47.139Z,5.70
2023-03-29T12:56:23.436Z,7.38
2023-03-29T12:59:06.377Z,7.00
2023-03-29T13:01:41.282Z,8.55
2023-03-29T13:04:16.829Z,9.40
2023-03-29T13:07:03.735Z,7.22
2023-03-29T13:09:47.865Z,9.63
2023-03-29T13:12:24.938Z,11.60
2023-03-29T13:14:59.069Z,9.63
2023-03-29T13:17:36.120Z,8.88
2023-03-29T13:20:22.731Z,10.45
2023-03-29T13:23:01.210Z,9.93
2023-03-29T13:25:41.119Z,9.43
2023-03-29T13:28:19.626Z,11.85
2023-03-29T13:30:57.179Z,9.43
2023-03-29T13:33:50.567Z,11.48
2023-03-29T13:36:31.921Z,10.05
2023-03-29T13:39:06.924Z,10.00
2023-03-29T13:41:50.317Z,12.50
2023-03-29T13:44:35.943Z,9.30
2023-03-29T13:47:16.235Z,8.30
2023-03-29T13:49:52.401Z,7.05
2023-03-29T13:52:27.419Z,9.52
2023-03-29T13:55:04.430Z,11.93
2023-03-29T13:57:39.378Z,8.70
2023-03-29T14:00:18.101Z,8.45
2023-03-29T14:02:52.527Z,10.07
2023-03-29T14:05:28.861Z,8.68
2023-03-29T14:08:04.668Z,6.97
2023-03-29T14:10:40.828Z,10.65
2023-03-29T14:13:14.730Z,8.27
2023-03-29T14:15:50.470Z,7.03
2023-03-29T14:18:24.152Z,6.03
2023-03-29T14:20:56.889Z,7.40
2023-03-29T14:23:31.326Z,7.43
2023-03-29T14:26:08.196Z,6.50
2023-03-29T14:28:45.885Z,10.75
2023-03-29T14:31:21.081Z,7.88
2023-03-29T14:33:54.338Z,6.88
2023-03-29T14:36:29.895Z,7.88
2023-03-29T14:39:04.076Z,5.57
2023-03-29T14:41:37.687Z,6.00
2023-03-29T14:44:11.518Z,8.05
2023-03-29T14:46:46.710Z,5.63
2023-03-29T14:49:20.583Z,5.97
2023-03-29T14:51:54.694Z,7.93
2023-03-29T14:54:28.191Z,6.93
2023-03-29T14:57:01.422Z,7.55
2023-03-29T14:59:37.268Z,5.60
2023-03-29T15:02:24.984Z,4.45
2023-03-29T15:04:59.569Z,4.90
2023-03-29T15:07:33.412Z,6.57
2023-03-29T15:10:07.339Z,7.30
2023-03-29T15:12:42.999Z,4.87
2023-03-29T15:15:16.286Z,3.92
2023-03-29T15:17:52.698Z,3.75
2023-03-29T15:20:26.746Z,6.13
2023-03-29T15:23:00.699Z,5.93
2023-03-29T15:25:34.824Z,5.88
2023-03-29T15:28:07.520Z,5.00
2023-03-29T15:30:47.764Z,5.63
2023-03-29T15:33:32.978Z,7.65
2023-03-29T15:36:06.965Z,5.13
2023-03-29T15:38:44.424Z,5.35
2023-03-29T15:41:18.411Z,5.38
2023-03-29T15:43:52.246Z,4.00
2023-03-29T15:46:25.026Z,6.25
2023-03-29T15:49:00.837Z,4.03
2023-03-29T15:51:33.607Z,5.95
2023-03-29T15:54:09.131Z,5.63
2023-03-29T15:56:45.603Z,5.20
2023-03-29T15:59:19.650Z,4.20
2023-03-29T16:01:56.921Z,5.10
2023-03-29T16:04:33.529Z,8.05
2023-03-29T16:07:12.217Z,4.32
2023-03-29T16:09:47.718Z,4.18
2023-03-29T16:12:20.579Z,3.55
2023-03-29T16:14:54.456Z,4.40
2023-03-29T16:17:27.255Z,7.47
2023-03-29T16:20:01.544Z,7.93
2023-03-29T16:22:34.231Z,4.40
2023-03-29T16:25:12.740Z,3.67
2023-03-29T16:27:45.930Z,4.25
2023-03-29T16:30:19.675Z,4.27
2023-03-29T16:32:52.404Z,4.18
2023-03-29T16:35:28.236Z,3.17
2023-03-29T16:38:00.915Z,2.75
2023-03-29T16:40:34.284Z,5.05
2023-03-29T16:43:07.649Z,4.82
2023-03-29T16:45:40.541Z,6.18
2023-03-29T16:48:13.739Z,6.63
2023-03-29T16:50:49.213Z,3.60
2023-03-29T16:53:23.588Z,4.63
2023-03-29T16:55:56.555Z,4.68
2023-03-29T16:58:29.176Z,5.00
2023-03-29T17:01:08.676Z,6.93
2023-03-29T17:03:41.844Z,3.45
2023-03-29T17:06:17.001Z,4.15
2023-03-29T17:08:51.184Z,4.68
2023-03-29T17:11:25.004Z,3.10
2023-03-29T17:13:57.691Z,3.20
2023-03-29T17:16:31.265Z,4.50
2023-03-29T17:19:03.940Z,3.10
2023-03-29T17:21:37.890Z,4.13
2023-03-29T17:24:10.798Z,4.47
2023-03-29T17:26:45.276Z,3.03
2023-03-29T17:29:18.655Z,5.28
2023-03-29T17:31:51.430Z,3.92
2023-03-29T17:34:24.244Z,5.07
2023-03-29T17:36:59.093Z,3.60
2023-03-29T17:39:32.030Z,2.80
2023-03-29T17:42:05.450Z,3.40
2023-03-29T17:44:38.447Z,6.22
2023-03-29T17:47:11.316Z,5.32
2023-03-29T17:49:44.724Z,4.97
2023-03-29T17:52:19.279Z,7.93
2023-03-29T17:54:53.467Z,4.97
2023-03-29T17:57:26.281Z,5.50
2023-03-29T17:59:59.088Z,6.78
2023-03-29T18:02:32.066Z,6.63
2023-03-29T18:05:05.276Z,4.53
2023-03-29T18:07:41.774Z,4.93
2023-03-29T18:10:16.295Z,4.63
2023-03-29T18:12:49.324Z,6.75
2023-03-29T18:15:23.944Z,6.22
2023-03-29T18:20:30.593Z,4.00
2023-03-29T18:23:05.716Z,4.68
2023-03-29T18:25:38.651Z,4.40
2023-03-29T18:28:13.624Z,3.75
2023-03-29T18:30:46.266Z,2.97
2023-03-29T18:33:18.948Z,4.35
2023-03-29T18:35:51.984Z,5.18
2023-03-29T18:38:26.111Z,4.25
2023-03-29T18:40:59.176Z,5.22
2023-03-29T18:43:33.397Z,1.63
2023-03-29T18:46:06.540Z,6.38
2023-03-29T18:48:40.894Z,4.07
2023-03-29T18:51:14.831Z,3.40
2023-03-29T18:53:48.804Z,3.92
2023-03-29T18:56:21.538Z,5.25
2023-03-29T18:58:54.355Z,5.57
2023-03-29T19:01:27.056Z,9.30
2023-03-29T19:03:59.730Z,10.30
2023-03-29T19:06:32.672Z,9.38
2023-03-29T19:09:07.393Z,9.50
2023-03-29T19:11:40.014Z,3.83
2023-03-29T19:14:12.706Z,3.80
2023-03-29T19:16:45.452Z,4.28
2023-03-29T19:19:19.140Z,5.05
2023-03-29T19:21:53.194Z,6.43
2023-03-29T19:24:27.197Z,4.17
2023-03-29T19:26:59.862Z,5.40
2023-03-29T19:29:32.558Z,4.00
2023-03-29T19:32:06.694Z,3.80
2023-03-29T19:34:39.570Z,3.55
2023-03-29T19:37:14.711Z,3.67
2023-03-29T19:39:51.493Z,3.28
2023-03-29T19:42:24.328Z,5.05
2023-03-29T19:44:57.012Z,3.92
2023-03-29T19:47:29.742Z,3.60
2023-03-29T19:50:04.261Z,4.80
2023-03-29T19:52:37.121Z,4.60
2023-03-29T19:55:14.170Z,4.10
2023-03-29T19:57:47.726Z,4.57
2023-03-29T20:00:24.350Z,4.97
2023-03-29T20:02:57.205Z,6.13
2023-03-29T20:05:30.061Z,3.70
2023-03-29T20:08:02.831Z,6.38
2023-03-29T20:10:36.955Z,5.22
2023-03-29T20:13:09.597Z,3.85
2023-03-29T20:15:46.065Z,2.60
2023-03-29T20:18:18.693Z,4.35
2023-03-29T20:20:51.338Z,4.97
2023-03-29T20:23:23.936Z,5.10
2023-03-29T20:25:57.992Z,4.07
2023-03-29T20:28:31.306Z,4.38
2023-03-29T20:31:05.229Z,3.50
2023-03-29T20:33:38.507Z,4.20
2023-03-29T20:36:11.314Z,4.05
2023-03-29T20:38:44.088Z,3.78
2023-03-29T20:41:19.420Z,6.75
2023-03-29T20:43:58.389Z,7.18
2023-03-29T20:46:34.101Z,4.93
2023-03-29T20:49:08.874Z,5.47
2023-03-29T20:54:15.116Z,10.35
2023-03-29T20:56:49.223Z,5.25
2023-03-29T20:59:22.525Z,4.47
2023-03-29T21:01:55.243Z,4.07
2023-03-29T21:04:28.031Z,6.93
2023-03-29T21:07:03.175Z,7.20
2023-03-29T21:09:37.154Z,4.85
2023-03-29T21:12:11.220Z,5.65
2023-03-29T21:14:44.575Z,3.90
2023-03-29T21:17:17.192Z,4.15
2023-03-29T21:19:49.891Z,3.05
2023-03-29T21:22:23.184Z,2.85
2023-03-29T21:24:55.793Z,4.47
2023-03-29T21:27:29.860Z,4.20
2023-03-29T21:30:02.520Z,4.28
2023-03-29T21:32:35.181Z,3.78
2023-03-29T21:35:08.402Z,3.63
2023-03-29T21:37:41.127Z,3.47
2023-03-29T21:40:14.351Z,3.00
2023-03-29T21:42:48.396Z,2.58
2023-03-29T21:45:21.062Z,5.93
2023-03-29T21:47:54.071Z,5.93
2023-03-29T21:50:26.674Z,4.18
2023-03-29T21:52:59.251Z,3.83
2023-03-29T21:55:33.995Z,4.60
2023-03-29T22:00:40.443Z,5.95
2023-03-29T22:03:13.247Z,3.42
2023-03-29T22:05:56.029Z,5.05
2023-03-29T22:08:28.848Z,6.72
2023-03-29T22:11:08.925Z,5.68
2023-03-29T22:13:42.655Z,5.85
2023-03-29T22:16:18.227Z,4.43
2023-03-29T22:18:52.217Z,4.85
2023-03-29T22:21:26.468Z,4.13
2023-03-29T22:24:00.162Z,9.82
2023-03-29T22:26:33.874Z,4.53
2023-03-29T22:29:06.520Z,6.25
2023-03-29T22:31:40.486Z,4.90
2023-03-29T22:34:13.479Z,3.47
2023-03-29T22:36:46.238Z,3.63
2023-03-29T22:39:18.878Z,4.07
2023-03-29T22:41:51.550Z,6.63
2023-03-29T22:44:24.186Z,4.70
2023-03-29T22:46:58.233Z,6.80
2023-03-29T22:49:31.169Z,4.45
2023-03-29T22:52:03.895Z,6.45
2023-03-29T22:54:36.695Z,4.72
2023-03-29T22:57:09.428Z,6.30
2023-03-29T22:59:42.149Z,4.55
2023-03-29T23:02:16.178Z,10.63
2023-03-29T23:04:49.357Z,5.93
2023-03-29T23:07:22.002Z,3.85
2023-03-29T23:09:54.660Z,6.00
2023-03-29T23:12:27.306Z,5.80
2023-03-29T23:15:00.103Z,3.28
2023-03-29T23:17:35.167Z,3.50
2023-03-29T23:20:08.798Z,4.82
2023-03-29T23:22:41.401Z,6.13
2023-03-29T23:25:14.072Z,5.50
2023-03-29T23:27:46.905Z,7.25
2023-03-29T23:30:19.726Z,5.63
2023-03-29T23:32:54.288Z,6.68
2023-03-29T23:35:27.360Z,3.60
2023-03-29T23:38:00.694Z,4.18
2023-03-29T23:40:33.891Z,4.88
2023-03-29T23:43:06.577Z,5.00
2023-03-29T23:45:39.493Z,6.63
2023-03-29T23:48:13.940Z,4.60
2023-03-29T23:50:47.224Z,6.03
2023-03-29T23:53:20.719Z,4.63
2023-03-29T23:55:56.182Z,4.93
2023-03-29T23:58:29.236Z,4.63
